Time;durP1;ratioP1;P1;durP2;ratioP2;P2;SDS_P1;SDS_P2;PMS_P1;PMS_P2;Temp;Humidity;BMP_temperature;BMP_pressure;BME280_temperature;BME280_humidity;BME280_pressure;Samples;Min_cycle;Max_cycle;Signal;HPM_P1;HPM_P2
2022/06/29 00:00:02;;;;;;;;;;;23.50;63.00;;;;;;5048529;28;83179;-45
2022/06/29 00:02:27;;;;;;;;;;;23.50;63.00;;;;;;5045215;27;82954;-44
2022/06/29 00:04:53;;;;;;;;;;;23.40;63.10;;;;;;5045489;27;83023;-44
2022/06/29 00:07:19;;;;;;;;;;;23.40;63.00;;;;;;5048371;28;81985;-44
2022/06/29 00:09:45;;;;;;;;;;;23.40;63.10;;;;;;5049603;27;82546;-44
2022/06/29 00:12:11;;;;;;;;;;;23.40;63.10;;;;;;5049019;28;83285;-44
2022/06/29 00:14:41;;;;;;;;;;;23.40;63.00;;;;;;5049508;28;82197;-44
2022/06/29 00:17:13;;;;;;;;;;;23.40;63.10;;;;;;5049253;27;83893;-46
2022/06/29 00:19:39;;;;;;;;;;;23.40;63.10;;;;;;5052143;28;82129;-45
2022/06/29 00:22:05;;;;;;;;;;;23.30;63.10;;;;;;5049290;27;82442;-44
2022/06/29 00:24:31;;;;;;;;;;;23.30;63.10;;;;;;5047275;28;84385;-44
2022/06/29 00:26:57;;;;;;;;;;;23.30;63.20;;;;;;5048504;28;82798;-44
2022/06/29 00:29:22;;;;;;;;;;;23.30;63.20;;;;;;5049134;27;83368;-44
2022/06/29 00:31:48;;;;;;;;;;;23.30;63.20;;;;;;5048988;28;82802;-44
2022/06/29 00:34:13;;;;;;;;;;;23.20;63.20;;;;;;5049099;28;82103;-45
2022/06/29 00:36:39;;;;;;;;;;;23.20;63.20;;;;;;5048719;28;83780;-45
2022/06/29 00:39:04;;;;;;;;;;;23.20;63.20;;;;;;5049001;28;84177;-45
2022/06/29 00:41:30;;;;;;;;;;;23.20;63.20;;;;;;5051418;28;82081;-45
2022/06/29 00:43:55;;;;;;;;;;;23.20;63.20;;;;;;5048544;28;81686;-44
2022/06/29 00:46:21;;;;;;;;;;;23.20;63.20;;;;;;5049020;28;81847;-45
2022/06/29 00:48:46;;;;;;;;;;;23.20;63.10;;;;;;5048966;28;82838;-45
2022/06/29 00:51:14;;;;;;;;;;;23.20;63.10;;;;;;5047887;28;83926;-45
2022/06/29 00:53:40;;;;;;;;;;;23.20;63.20;;;;;;5048629;28;82058;-47
2022/06/29 00:56:09;;;;;;;;;;;23.10;63.20;;;;;;5048208;27;82688;-44
2022/06/29 00:58:35;;;;;;;;;;;23.10;63.10;;;;;;5048469;28;82434;-44
2022/06/29 01:01:02;;;;;;;;;;;23.10;63.20;;;;;;5048545;28;82025;-44
2022/06/29 01:03:27;;;;;;;;;;;23.10;63.20;;;;;;5051005;28;82515;-44
2022/06/29 01:05:54;;;;;;;;;;;23.10;63.30;;;;;;5048571;28;82004;-44
2022/06/29 01:08:19;;;;;;;;;;;23.00;63.20;;;;;;5049082;28;82688;-45
2022/06/29 01:10:45;;;;;;;;;;;23.10;63.30;;;;;;5047980;28;83072;-43
2022/06/29 01:13:10;;;;;;;;;;;23.00;63.20;;;;;;5048371;28;82181;-44
2022/06/29 01:15:36;;;;;;;;;;;23.00;63.30;;;;;;5047534;27;83760;-44
2022/06/29 01:18:02;;;;;;;;;;;23.00;63.30;;;;;;5047668;27;84328;-45
2022/06/29 01:20:27;;;;;;;;;;;23.00;63.30;;;;;;5048344;28;81850;-46
2022/06/29 01:22:53;;;;;;;;;;;23.00;63.40;;;;;;5048440;28;82020;-44
2022/06/29 01:25:19;;;;;;;;;;;22.90;63.30;;;;;;5050617;28;82102;-44
2022/06/29 01:27:45;;;;;;;;;;;22.90;63.30;;;;;;5048269;27;82435;-44
2022/06/29 01:30:11;;;;;;;;;;;22.90;63.30;;;;;;5048011;28;83369;-44
2022/06/29 01:32:40;;;;;;;;;;;22.90;63.30;;;;;;5048677;28;81328;-44
2022/06/29 01:35:07;;;;;;;;;;;22.90;63.50;;;;;;5047890;27;82980;-46
2022/06/29 01:37:33;;;;;;;;;;;22.90;63.40;;;;;;5047558;28;84051;-45
2022/06/29 01:39:58;;;;;;;;;;;22.90;63.40;;;;;;5047326;28;83260;-45
2022/06/29 01:42:24;;;;;;;;;;;22.90;63.40;;;;;;5047935;28;83503;-45
2022/06/29 01:44:49;;;;;;;;;;;22.80;63.40;;;;;;5047285;28;83054;-45
2022/06/29 01:47:15;;;;;;;;;;;22.80;63.50;;;;;;5050577;28;81983;-44
2022/06/29 01:49:40;;;;;;;;;;;22.80;63.60;;;;;;5047782;28;83050;-44
2022/06/29 01:52:06;;;;;;;;;;;22.80;63.60;;;;;;5047860;28;82089;-45
2022/06/29 01:54:31;;;;;;;;;;;22.80;63.50;;;;;;5047700;27;81981;-44
2022/06/29 01:56:57;;;;;;;;;;;22.80;63.60;;;;;;5048299;28;82397;-45
2022/06/29 01:59:22;;;;;;;;;;;22.70;63.50;;;;;;5047699;28;81953;-44
2022/06/29 02:01:48;;;;;;;;;;;22.70;63.50;;;;;;5047727;28;82556;-45
2022/06/29 02:04:14;;;;;;;;;;;22.70;63.60;;;;;;5046482;28;85311;-44
2022/06/29 02:06:40;;;;;;;;;;;22.70;63.60;;;;;;5047523;28;82046;-44
2022/06/29 02:09:05;;;;;;;;;;;22.70;63.60;;;;;;5050075;28;82421;-44
2022/06/29 02:11:31;;;;;;;;;;;22.60;63.60;;;;;;5047503;28;81991;-45
2022/06/29 02:13:56;;;;;;;;;;;22.60;63.60;;;;;;5047521;28;82688;-45
2022/06/29 02:16:22;;;;;;;;;;;22.60;63.60;;;;;;5047227;28;83010;-44
2022/06/29 02:18:48;;;;;;;;;;;22.60;63.70;;;;;;5047499;28;82297;-45
2022/06/29 02:21:14;;;;;;;;;;;22.60;63.70;;;;;;5047888;28;82465;-44
2022/06/29 02:23:39;;;;;;;;;;;22.60;63.80;;;;;;5046786;28;83360;-44
2022/06/29 02:26:06;;;;;;;;;;;22.60;63.70;;;;;;5047325;28;82048;-46
2022/06/29 02:28:32;;;;;;;;;;;22.60;63.70;;;;;;5048211;27;83731;-44
2022/06/29 02:36:26;;;;;;;;;;;22.50;63.80;;;;;;5046715;28;82251;-46
2022/06/29 02:38:52;;;;;;;;;;;22.50;63.90;;;;;;5046836;28;82082;-45
2022/06/29 02:41:17;;;;;;;;;;;22.50;63.80;;;;;;5047064;28;82650;-45
2022/06/29 02:43:45;;;;;;;;;;;22.50;63.80;;;;;;5046894;28;82962;-44
2022/06/29 02:46:10;;;;;;;;;;;22.40;63.80;;;;;;5046873;28;81424;-44
2022/06/29 02:48:36;;;;;;;;;;;22.40;63.90;;;;;;5047192;28;82029;-44
2022/06/29 02:51:01;;;;;;;;;;;22.40;63.90;;;;;;5049393;28;83095;-45
2022/06/29 02:53:27;;;;;;;;;;;22.40;64.00;;;;;;5046203;28;82960;-45
2022/06/29 02:55:52;;;;;;;;;;;22.40;63.90;;;;;;5046675;28;82897;-45
2022/06/29 02:58:18;;;;;;;;;;;22.30;64.00;;;;;;5046649;28;82029;-45
2022/06/29 03:00:43;;;;;;;;;;;22.30;63.90;;;;;;5046913;28;83011;-44
2022/06/29 03:03:09;;;;;;;;;;;22.30;64.00;;;;;;5046386;28;82511;-44
2022/06/29 03:05:34;;;;;;;;;;;22.30;64.10;;;;;;5046474;28;82156;-45
2022/06/29 03:08:00;;;;;;;;;;;22.30;64.00;;;;;;5046859;28;82501;-44
2022/06/29 03:10:25;;;;;;;;;;;22.30;64.00;;;;;;5047125;28;82364;-44
2022/06/29 03:12:51;;;;;;;;;;;22.30;64.00;;;;;;5049176;28;82102;-44
2022/06/29 03:15:16;;;;;;;;;;;22.30;64.00;;;;;;5046496;28;83152;-44
2022/06/29 03:17:42;;;;;;;;;;;22.20;64.10;;;;;;5045824;28;83039;-45
2022/06/29 03:20:08;;;;;;;;;;;22.20;64.30;;;;;;5046356;28;83444;-44
2022/06/29 03:22:34;;;;;;;;;;;22.20;64.20;;;;;;5046123;28;84437;-44
2022/06/29 03:25:00;;;;;;;;;;;22.20;64.20;;;;;;5046254;28;82077;-44
2022/06/29 03:27:26;;;;;;;;;;;22.10;64.20;;;;;;5046249;27;83643;-44
2022/06/29 03:29:51;;;;;;;;;;;22.10;64.20;;;;;;5046153;28;82938;-45
2022/06/29 03:32:17;;;;;;;;;;;22.10;64.10;;;;;;5046404;28;82102;-45
2022/06/29 03:34:42;;;;;;;;;;;22.10;64.10;;;;;;5049362;28;82513;-46
2022/06/29 03:37:08;;;;;;;;;;;22.10;64.20;;;;;;5046054;28;81981;-44
2022/06/29 03:39:33;;;;;;;;;;;22.10;64.20;;;;;;5046203;28;81943;-44
2022/06/29 03:41:59;;;;;;;;;;;22.10;64.30;;;;;;5044870;28;84009;-44
2022/06/29 03:44:25;;;;;;;;;;;22.10;64.20;;;;;;5045429;28;82172;-44
2022/06/29 03:46:50;;;;;;;;;;;22.10;64.20;;;;;;5046273;28;82468;-44
2022/06/29 03:49:16;;;;;;;;;;;22.10;64.30;;;;;;5045632;28;84311;-44
2022/06/29 03:51:42;;;;;;;;;;;22.00;64.20;;;;;;5046134;28;83408;-44
2022/06/29 03:54:07;;;;;;;;;;;22.00;64.40;;;;;;5046144;27;82467;-45
2022/06/29 03:56:32;;;;;;;;;;;22.00;64.30;;;;;;5048544;28;83002;-45
2022/06/29 03:58:58;;;;;;;;;;;22.00;64.40;;;;;;5046457;28;82456;-45
2022/06/29 04:01:24;;;;;;;;;;;22.00;64.40;;;;;;5045779;28;82252;-45
2022/06/29 04:03:49;;;;;;;;;;;22.00;64.40;;;;;;5045569;28;82065;-45
2022/06/29 04:06:15;;;;;;;;;;;21.90;64.40;;;;;;5044790;27;83735;-44
2022/06/29 04:08:40;;;;;;;;;;;21.90;64.50;;;;;;5045754;28;82173;-44
2022/06/29 04:11:48;;;;;;;;;;;21.90;64.50;;;;;;5045736;28;82599;-45
2022/06/29 04:13:55;;;;;;;;;;;21.90;64.50;;;;;;5045481;28;82607;-44
2022/06/29 04:16:21;;;;;;;;;;;21.90;64.40;;;;;;5045491;28;82949;-44
2022/06/29 04:18:46;;;;;;;;;;;21.90;64.60;;;;;;5048254;28;81951;-45
2022/06/29 04:21:12;;;;;;;;;;;21.90;64.60;;;;;;5045367;28;83025;-43
2022/06/29 04:23:37;;;;;;;;;;;21.90;64.60;;;;;;5046283;28;81387;-44
2022/06/29 04:26:03;;;;;;;;;;;21.80;64.60;;;;;;5045405;28;82121;-44
2022/06/29 04:28:28;;;;;;;;;;;21.80;64.70;;;;;;5045562;28;83140;-44
2022/06/29 04:30:54;;;;;;;;;;;21.80;64.70;;;;;;5043538;28;83021;-45
2022/06/29 04:33:19;;;;;;;;;;;21.80;64.70;;;;;;5045486;28;83306;-45
2022/06/29 04:35:45;;;;;;;;;;;21.80;64.80;;;;;;5045272;28;83195;-44
2022/06/29 04:38:10;;;;;;;;;;;21.70;64.90;;;;;;5048326;28;82018;-44
2022/06/29 04:40:36;;;;;;;;;;;21.80;64.90;;;;;;5045167;28;83405;-44
2022/06/29 04:43:02;;;;;;;;;;;21.80;64.80;;;;;;5045401;28;82088;-44
2022/06/29 04:48:11;;;;;;;;;;;21.80;64.80;;;;;;5045871;28;81517;-44
2022/06/29 04:50:37;;;;;;;;;;;21.80;64.90;;;;;;5045320;28;82001;-45
2022/06/29 04:53:02;;;;;;;;;;;21.70;64.80;;;;;;5047259;27;82486;-44
2022/06/29 04:55:29;;;;;;;;;;;21.70;64.80;;;;;;5047630;27;85064;-45
2022/06/29 04:57:55;;;;;;;;;;;21.70;64.80;;;;;;5048600;28;82167;-44
2022/06/29 05:00:20;;;;;;;;;;;21.70;64.90;;;;;;5051005;28;83217;-44
2022/06/29 05:02:46;;;;;;;;;;;21.70;64.90;;;;;;5048285;28;82788;-44
2022/06/29 05:05:11;;;;;;;;;;;21.70;64.90;;;;;;5048475;28;82946;-44
2022/06/29 05:07:37;;;;;;;;;;;21.70;64.90;;;;;;5048439;28;83032;-45
2022/06/29 05:10:02;;;;;;;;;;;21.70;64.80;;;;;;5048547;28;82395;-44
2022/06/29 05:12:28;;;;;;;;;;;21.70;64.90;;;;;;5048693;27;84172;-44
2022/06/29 05:14:53;;;;;;;;;;;21.70;64.90;;;;;;5048482;28;83262;-44
2022/06/29 05:17:19;;;;;;;;;;;21.70;65.10;;;;;;5048294;28;82164;-44
2022/06/29 05:19:44;;;;;;;;;;;21.60;65.70;;;;;;5047766;28;82945;-44
2022/06/29 05:22:10;;;;;;;;;;;21.70;65.00;;;;;;5050775;28;84300;-44
2022/06/29 05:24:35;;;;;;;;;;;21.70;65.00;;;;;;5048317;28;82416;-44
2022/06/29 05:27:01;;;;;;;;;;;21.60;65.00;;;;;;5047795;28;83655;-42
2022/06/29 05:29:26;;;;;;;;;;;21.60;65.10;;;;;;5047784;28;82837;-44
2022/06/29 05:31:52;;;;;;;;;;;21.60;65.10;;;;;;5048057;28;82826;-44
2022/06/29 05:34:18;;;;;;;;;;;21.60;65.10;;;;;;5048049;28;82963;-46
2022/06/29 05:36:43;;;;;;;;;;;21.60;65.10;;;;;;5048727;28;81347;-43
2022/06/29 05:39:09;;;;;;;;;;;21.60;65.00;;;;;;5048126;28;81940;-44
2022/06/29 05:41:34;;;;;;;;;;;21.70;64.90;;;;;;5047867;28;83304;-44
2022/06/29 05:44:01;;;;;;;;;;;21.70;64.80;;;;;;5049477;28;82887;-44
2022/06/29 05:46:27;;;;;;;;;;;21.70;65.00;;;;;;5047774;28;83116;-44
2022/06/29 05:48:52;;;;;;;;;;;21.60;65.00;;;;;;5047619;28;82045;-44
2022/06/29 05:51:18;;;;;;;;;;;21.60;65.10;;;;;;5047977;27;82556;-43
2022/06/29 05:53:44;;;;;;;;;;;21.60;65.10;;;;;;5047598;28;82559;-44
2022/06/29 05:56:10;;;;;;;;;;;21.60;65.10;;;;;;5047988;28;82350;-44
2022/06/29 05:58:35;;;;;;;;;;;21.70;65.10;;;;;;5047581;27;83792;-44
2022/06/29 06:01:01;;;;;;;;;;;21.70;65.10;;;;;;5048081;28;82206;-46
2022/06/29 06:03:26;;;;;;;;;;;21.70;65.20;;;;;;5047516;27;82195;-44
2022/06/29 06:05:51;;;;;;;;;;;21.70;65.10;;;;;;5049962;28;82387;-44
2022/06/29 06:08:17;;;;;;;;;;;21.70;65.20;;;;;;5046927;28;83095;-44
2022/06/29 06:10:43;;;;;;;;;;;21.70;65.20;;;;;;5047683;27;83609;-44
2022/06/29 06:13:08;;;;;;;;;;;21.70;65.20;;;;;;5047401;28;83022;-46
2022/06/29 06:15:34;;;;;;;;;;;21.70;65.30;;;;;;5047386;28;82062;-44
2022/06/29 06:18:00;;;;;;;;;;;21.60;65.20;;;;;;5047354;28;82430;-44
2022/06/29 06:20:27;;;;;;;;;;;21.60;65.40;;;;;;5047142;28;84217;-43
2022/06/29 06:22:52;;;;;;;;;;;21.60;65.40;;;;;;5047280;28;82061;-45
2022/06/29 06:25:18;;;;;;;;;;;21.60;65.40;;;;;;5050365;28;82454;-44
2022/06/29 06:27:43;;;;;;;;;;;21.70;65.40;;;;;;5047323;28;81953;-44
2022/06/29 06:30:09;;;;;;;;;;;21.70;65.40;;;;;;5047105;28;82503;-44
2022/06/29 06:32:34;;;;;;;;;;;21.70;65.30;;;;;;5046039;28;84135;-45
2022/06/29 06:35:00;;;;;;;;;;;21.70;65.30;;;;;;5047286;28;82024;-43
2022/06/29 06:37:25;;;;;;;;;;;21.60;65.50;;;;;;5047210;28;82495;-44
2022/06/29 06:42:35;;;;;;;;;;;21.70;65.50;;;;;;5047218;28;81885;-44
2022/06/29 06:45:00;;;;;;;;;;;21.70;65.30;;;;;;5046322;28;82084;-44
2022/06/29 06:47:26;;;;;;;;;;;21.70;65.50;;;;;;5049542;28;84002;-44
2022/06/29 06:49:51;;;;;;;;;;;21.70;65.50;;;;;;5047347;28;82563;-43
2022/06/29 06:52:17;;;;;;;;;;;21.70;65.50;;;;;;5046796;28;82744;-42
2022/06/29 06:54:44;;;;;;;;;;;21.60;65.40;;;;;;5046504;28;81951;-44
2022/06/29 06:57:10;;;;;;;;;;;21.70;65.50;;;;;;5046267;27;82766;-43
2022/06/29 06:59:36;;;;;;;;;;;21.70;65.40;;;;;;5046365;28;83287;-44
2022/06/29 07:02:02;;;;;;;;;;;21.70;65.50;;;;;;5046694;28;81844;-44
2022/06/29 07:04:28;;;;;;;;;;;21.70;65.30;;;;;;5046172;27;83786;-44
2022/06/29 07:06:53;;;;;;;;;;;21.70;65.30;;;;;;5046228;28;84513;-45
2022/06/29 07:09:19;;;;;;;;;;;21.80;65.30;;;;;;5049242;28;82073;-43
2022/06/29 07:11:44;;;;;;;;;;;21.80;65.30;;;;;;5046490;28;82948;-46
2022/06/29 07:14:10;;;;;;;;;;;21.80;65.40;;;;;;5047179;28;81103;-44
2022/06/29 07:16:35;;;;;;;;;;;21.80;65.20;;;;;;5045760;28;82019;-44
2022/06/29 07:19:01;;;;;;;;;;;21.80;65.30;;;;;;5046553;28;83017;-44
2022/06/29 07:21:26;;;;;;;;;;;21.80;65.30;;;;;;5045931;28;82891;-44
2022/06/29 07:23:52;;;;;;;;;;;21.80;65.30;;;;;;5046631;28;82551;-44
2022/06/29 07:26:18;;;;;;;;;;;21.80;65.30;;;;;;5046219;28;83306;-43
2022/06/29 07:28:43;;;;;;;;;;;21.80;65.50;;;;;;5046154;28;82009;-42
2022/06/29 07:31:09;;;;;;;;;;;21.80;65.40;;;;;;5048700;28;82501;-45
2022/06/29 07:33:34;;;;;;;;;;;21.80;65.50;;;;;;5046268;28;81899;-43
2022/06/29 07:36:00;;;;;;;;;;;21.80;65.60;;;;;;5046239;28;82461;-43
2022/06/29 07:38:25;;;;;;;;;;;21.80;65.40;;;;;;5046740;28;82301;-44
2022/06/29 07:40:51;;;;;;;;;;;21.80;65.30;;;;;;5046314;28;82054;-43
2022/06/29 07:43:17;;;;;;;;;;;21.80;65.40;;;;;;5046503;28;82412;-43
2022/06/29 07:45:43;;;;;;;;;;;21.80;65.50;;;;;;5044331;28;84482;-43
2022/06/29 07:48:08;;;;;;;;;;;21.80;65.50;;;;;;5046039;28;82172;-44
2022/06/29 07:50:34;;;;;;;;;;;21.80;65.50;;;;;;5045732;27;83656;-44
2022/06/29 07:53:00;;;;;;;;;;;21.80;65.50;;;;;;5048530;28;83321;-44
2022/06/29 07:55:26;;;;;;;;;;;21.80;65.40;;;;;;5046003;27;82398;-43
2022/06/29 07:57:51;;;;;;;;;;;21.90;65.40;;;;;;5045481;28;84320;-44
2022/06/29 08:00:17;;;;;;;;;;;21.80;65.40;;;;;;5045884;28;82079;-43
2022/06/29 08:02:43;;;;;;;;;;;21.80;65.40;;;;;;5046054;27;83139;-44
2022/06/29 08:05:09;;;;;;;;;;;21.80;65.50;;;;;;5045329;28;84431;-44
2022/06/29 08:07:34;;;;;;;;;;;21.80;65.50;;;;;;5045804;28;82111;-44
2022/06/29 08:10:00;;;;;;;;;;;21.90;65.50;;;;;;5045143;27;82923;-43
2022/06/29 08:12:26;;;;;;;;;;;21.80;65.50;;;;;;5044463;28;82042;-44
2022/06/29 08:14:51;;;;;;;;;;;21.90;65.70;;;;;;5048174;28;81909;-44
2022/06/29 08:17:17;;;;;;;;;;;21.90;65.50;;;;;;5045248;28;84195;-44
2022/06/29 08:19:42;;;;;;;;;;;21.90;65.50;;;;;;5045697;28;82018;-43
2022/06/29 08:22:08;;;;;;;;;;;21.90;65.30;;;;;;5045944;28;82368;-43
2022/06/29 08:24:33;;;;;;;;;;;21.90;65.50;;;;;;5045650;28;83014;-43
2022/06/29 08:26:59;;;;;;;;;;;21.90;65.40;;;;;;5046448;28;81662;-43
2022/06/29 08:29:24;;;;;;;;;;;21.90;65.40;;;;;;5047933;28;81941;-43
2022/06/29 08:31:50;;;;;;;;;;;21.90;65.40;;;;;;5048749;28;83354;-43
2022/06/29 08:34:17;;;;;;;;;;;21.90;65.40;;;;;;5051417;28;83017;-42
2022/06/29 08:36:42;;;;;;;;;;;21.90;65.40;;;;;;5048812;28;82966;-45
2022/06/29 08:39:08;;;;;;;;;;;21.90;65.50;;;;;;5049118;28;82097;-43
2022/06/29 08:41:34;;;;;;;;;;;21.90;65.40;;;;;;5048994;28;82538;-44
2022/06/29 08:44:02;;;;;;;;;;;21.90;65.30;;;;;;5047834;28;83739;-45
2022/06/29 08:46:28;;;;;;;;;;;21.90;65.30;;;;;;5048716;28;81933;-43
2022/06/29 08:48:53;;;;;;;;;;;21.90;65.30;;;;;;5048944;28;81992;-43
2022/06/29 08:51:20;;;;;;;;;;;22.00;65.30;;;;;;5049209;28;82146;-43
2022/06/29 08:53:45;;;;;;;;;;;22.00;65.40;;;;;;5048834;28;81838;-44
2022/06/29 08:56:12;;;;;;;;;;;22.00;65.40;;;;;;5051350;27;82435;-44
2022/06/29 08:58:39;;;;;;;;;;;22.00;65.40;;;;;;5047995;28;83006;-43
2022/06/29 09:01:04;;;;;;;;;;;22.00;65.30;;;;;;5048342;27;83453;-44
2022/06/29 09:03:30;;;;;;;;;;;22.00;65.30;;;;;;5048301;28;83749;-44
2022/06/29 09:05:56;;;;;;;;;;;22.00;65.40;;;;;;5048077;28;82121;-42
2022/06/29 09:08:22;;;;;;;;;;;22.00;65.40;;;;;;5048323;27;83878;-43
2022/06/29 09:10:48;;;;;;;;;;;22.00;65.30;;;;;;5048099;28;83430;-42
2022/06/29 09:13:20;;;;;;;;;;;22.10;65.30;;;;;;5048264;28;81980;-43
2022/06/29 09:15:46;;;;;;;;;;;22.10;65.50;;;;;;5048645;28;82444;-44
2022/06/29 09:18:27;;;;;;;;;;;22.10;65.30;;;;;;5051078;28;83171;-43
2022/06/29 09:20:57;;;;;;;;;;;22.10;65.30;;;;;;5048500;27;84069;-44
2022/06/29 09:23:23;;;;;;;;;;;22.10;65.30;;;;;;5047399;28;85230;-44
2022/06/29 09:25:49;;;;;;;;;;;22.10;65.30;;;;;;5048348;28;82093;-42
2022/06/29 09:28:19;;;;;;;;;;;22.10;65.50;;;;;;5047993;27;81967;-43
2022/06/29 09:30:45;;;;;;;;;;;22.10;65.80;;;;;;5047902;28;82989;-43
2022/06/29 09:33:11;;;;;;;;;;;22.10;65.40;;;;;;5048313;28;82145;-43
2022/06/29 09:35:37;;;;;;;;;;;22.10;65.80;;;;;;5048031;28;83982;-44
2022/06/29 09:38:21;;;;;;;;;;;22.10;65.60;;;;;;5047463;28;82997;-44
2022/06/29 09:40:59;;;;;;;;;;;22.20;65.90;;;;;;5050998;27;81419;-43
2022/06/29 09:43:24;;;;;;;;;;;22.20;65.80;;;;;;5047876;28;83039;-43
2022/06/29 09:45:51;;;;;;;;;;;22.20;65.80;;;;;;5047301;28;82101;-43
2022/06/29 09:48:17;;;;;;;;;;;22.20;66.00;;;;;;5047264;27;82931;-43
2022/06/29 09:50:43;;;;;;;;;;;22.20;65.90;;;;;;5047821;28;82547;-43
2022/06/29 09:53:09;;;;;;;;;;;22.30;65.90;;;;;;5047698;28;81834;-43
2022/06/29 09:55:34;;;;;;;;;;;22.30;65.90;;;;;;5048035;27;82417;-43
2022/06/29 09:58:00;;;;;;;;;;;22.30;66.20;;;;;;5047561;28;83089;-42
2022/06/29 10:03:11;;;;;;;;;;;22.30;65.80;;;;;;5049516;28;82005;-43
2022/06/29 10:05:55;;;;;;;;;;;22.30;66.10;;;;;;5047971;28;81263;-43
2022/06/29 10:08:20;;;;;;;;;;;22.30;65.90;;;;;;5047829;27;81824;-43
2022/06/29 10:10:52;;;;;;;;;;;22.30;65.70;;;;;;5047509;28;82953;-43
2022/06/29 10:16:07;;;;;;;;;;;22.40;65.80;;;;;;5047243;28;82677;-43
2022/06/29 10:18:38;;;;;;;;;;;22.40;65.70;;;;;;5046990;28;82200;-42
2022/06/29 10:21:11;;;;;;;;;;;22.40;65.50;;;;;;5047463;28;81952;-43
2022/06/29 10:23:47;;;;;;;;;;;22.40;65.40;;;;;;5047556;27;81953;-43
2022/06/29 10:26:32;;;;;;;;;;;22.50;65.40;;;;;;5049892;28;82919;-42
2022/06/29 10:29:10;;;;;;;;;;;22.50;65.30;;;;;;5046979;27;83918;-42
2022/06/29 10:31:54;;;;;;;;;;;22.50;65.20;;;;;;5047416;28;82807;-43
2022/06/29 10:34:35;;;;;;;;;;;22.50;65.20;;;;;;5047030;28;81892;-43
2022/06/29 10:37:07;;;;;;;;;;;22.50;65.10;;;;;;5047338;28;82474;-43
2022/06/29 10:39:35;;;;;;;;;;;22.60;65.10;;;;;;5046034;28;85477;-43
2022/06/29 10:44:54;;;;;;;;;;;22.60;65.60;;;;;;5046933;28;81810;-43
2022/06/29 10:47:23;;;;;;;;;;;22.60;64.90;;;;;;5049500;28;83117;-43
2022/06/29 10:49:48;;;;;;;;;;;22.60;64.90;;;;;;5046068;27;82338;-44
2022/06/29 10:52:15;;;;;;;;;;;22.60;64.90;;;;;;5046819;28;83477;-43
2022/06/29 10:54:41;;;;;;;;;;;22.60;64.90;;;;;;5045450;28;82052;-43
2022/06/29 10:57:06;;;;;;;;;;;22.70;64.70;;;;;;5047441;27;82677;-43
2022/06/29 10:59:36;;;;;;;;;;;22.70;64.70;;;;;;5046680;28;82315;-43
2022/06/29 11:02:13;;;;;;;;;;;22.70;64.50;;;;;;5046613;28;82089;-43
2022/06/29 11:04:39;;;;;;;;;;;22.80;64.50;;;;;;5045854;27;83114;-42
2022/06/29 11:12:33;;;;;;;;;;;22.80;64.30;;;;;;5046565;28;82121;-43
2022/06/29 11:17:45;;;;;;;;;;;22.80;64.20;;;;;;5044264;27;81922;-42
2022/06/29 11:20:20;;;;;;;;;;;22.90;64.20;;;;;;5046319;28;82913;-42
2022/06/29 11:22:49;;;;;;;;;;;22.90;64.20;;;;;;5047087;28;81476;-43
2022/06/29 11:25:15;;;;;;;;;;;22.90;64.00;;;;;;5046326;27;81911;-43
2022/06/29 11:27:40;;;;;;;;;;;22.90;63.90;;;;;;5046239;28;82397;-43
2022/06/29 11:30:11;;;;;;;;;;;23.00;63.90;;;;;;5045526;28;83081;-43
2022/06/29 11:32:38;;;;;;;;;;;23.00;63.90;;;;;;5048648;27;84714;-44
2022/06/29 11:35:05;;;;;;;;;;;23.00;63.80;;;;;;5046029;28;82110;-43
2022/06/29 11:37:30;;;;;;;;;;;23.00;63.80;;;;;;5046304;27;82417;-44
2022/06/29 11:39:56;;;;;;;;;;;23.00;63.70;;;;;;5045727;28;84276;-42
2022/06/29 11:45:16;;;;;;;;;;;23.10;63.70;;;;;;5045663;28;82003;-42
2022/06/29 11:48:01;;;;;;;;;;;23.10;63.40;;;;;;5046354;28;82382;-43
2022/06/29 11:50:27;;;;;;;;;;;23.10;63.50;;;;;;5045100;27;82181;-43
2022/06/29 11:52:53;;;;;;;;;;;23.10;63.50;;;;;;5045911;27;83951;-42
2022/06/29 11:55:37;;;;;;;;;;;23.10;63.40;;;;;;5048094;28;84096;-42
2022/06/29 11:58:03;;;;;;;;;;;23.20;63.50;;;;;;5045893;27;83386;-42
2022/06/29 12:00:29;;;;;;;;;;;23.20;63.30;;;;;;5045614;28;81998;-43
2022/06/29 12:02:58;;;;;;;;;;;23.20;63.30;;;;;;5049133;27;82088;-43
2022/06/29 12:05:24;;;;;;;;;;;23.20;63.40;;;;;;5048899;27;84018;-43
2022/06/29 12:07:49;;;;;;;;;;;23.20;63.20;;;;;;5049593;28;83225;-43
2022/06/29 12:10:16;;;;;;;;;;;23.20;63.00;;;;;;5049387;28;81833;-42
2022/06/29 12:12:41;;;;;;;;;;;23.30;63.10;;;;;;5049999;27;82457;-42
2022/06/29 12:15:08;;;;;;;;;;;23.30;63.10;;;;;;5049173;28;83003;-42
2022/06/29 12:17:35;;;;;;;;;;;23.30;63.10;;;;;;5051750;28;81938;-44
2022/06/29 12:20:01;;;;;;;;;;;23.40;63.20;;;;;;5048131;28;85199;-43
2022/06/29 12:22:27;;;;;;;;;;;23.30;63.00;;;;;;5048959;28;82031;-43
2022/06/29 12:24:52;;;;;;;;;;;23.40;63.10;;;;;;5049186;27;82777;-43
2022/06/29 12:27:18;;;;;;;;;;;23.40;63.10;;;;;;5048945;28;83139;-43
2022/06/29 12:29:43;;;;;;;;;;;23.40;62.90;;;;;;5049221;28;81950;-43
2022/06/29 12:32:09;;;;;;;;;;;23.40;62.90;;;;;;5049023;28;82479;-43
2022/06/29 12:34:34;;;;;;;;;;;23.40;62.90;;;;;;5048811;28;82636;-42
2022/06/29 12:37:03;;;;;;;;;;;23.50;62.70;;;;;;5049405;28;81400;-43
2022/06/29 12:39:28;;;;;;;;;;;23.50;62.70;;;;;;5051544;27;81938;-43
2022/06/29 12:41:54;;;;;;;;;;;23.50;63.10;;;;;;5049164;28;82036;-43
2022/06/29 12:44:20;;;;;;;;;;;23.50;62.50;;;;;;5047828;27;83967;-43
2022/06/29 12:46:45;;;;;;;;;;;23.50;62.30;;;;;;5048713;28;82586;-43
2022/06/29 12:49:17;;;;;;;;;;;23.60;62.40;;;;;;5048836;28;81940;-45
2022/06/29 12:51:43;;;;;;;;;;;23.60;62.30;;;;;;5048572;27;83176;-45
2022/06/29 12:54:08;;;;;;;;;;;23.60;62.10;;;;;;5048552;28;82959;-43
2022/06/29 12:56:34;;;;;;;;;;;23.60;62.20;;;;;;5048869;28;82091;-43
2022/06/29 12:58:59;;;;;;;;;;;23.60;62.00;;;;;;5051308;28;82868;-43
2022/06/29 13:01:25;;;;;;;;;;;23.70;61.80;;;;;;5049250;28;81372;-45
2022/06/29 13:03:50;;;;;;;;;;;23.70;61.90;;;;;;5048325;27;83214;-43
2022/06/29 13:06:16;;;;;;;;;;;23.70;62.00;;;;;;5048070;28;82876;-44
2022/06/29 13:08:41;;;;;;;;;;;23.70;61.70;;;;;;5048065;28;83010;-42
2022/06/29 13:11:07;;;;;;;;;;;23.70;61.80;;;;;;5048562;28;84074;-43
2022/06/29 13:13:32;;;;;;;;;;;23.80;61.40;;;;;;5047665;28;83188;-42
2022/06/29 13:15:58;;;;;;;;;;;23.80;61.00;;;;;;5047982;28;81887;-42
2022/06/29 13:18:24;;;;;;;;;;;23.80;61.20;;;;;;5048696;28;82356;-43
2022/06/29 13:20:49;;;;;;;;;;;23.90;60.90;;;;;;5051039;28;82947;-43
2022/06/29 13:23:15;;;;;;;;;;;23.90;61.40;;;;;;5048138;28;83972;-43
2022/06/29 13:25:40;;;;;;;;;;;23.90;61.20;;;;;;5048361;28;82776;-42
2022/06/29 13:28:06;;;;;;;;;;;23.90;61.10;;;;;;5048072;28;81949;-43
2022/06/29 13:30:32;;;;;;;;;;;23.90;60.90;;;;;;5048307;28;82568;-43
2022/06/29 13:32:58;;;;;;;;;;;23.90;60.80;;;;;;5047383;28;84068;-43
2022/06/29 13:35:23;;;;;;;;;;;24.00;61.00;;;;;;5048185;28;81973;-43
2022/06/29 13:37:49;;;;;;;;;;;24.00;61.10;;;;;;5048208;28;82506;-42
2022/06/29 13:40:14;;;;;;;;;;;24.00;60.60;;;;;;5047757;28;84261;-43
2022/06/29 13:42:40;;;;;;;;;;;24.00;60.70;;;;;;5050518;28;82056;-42
2022/06/29 13:45:06;;;;;;;;;;;24.00;60.80;;;;;;5047056;28;83448;-42
2022/06/29 13:47:31;;;;;;;;;;;24.10;60.90;;;;;;5047507;28;82170;-43
2022/06/29 13:49:57;;;;;;;;;;;24.10;60.70;;;;;;5048594;27;81472;-43
2022/06/29 13:52:22;;;;;;;;;;;24.10;60.60;;;;;;5047826;28;82941;-43
2022/06/29 13:54:48;;;;;;;;;;;24.20;60.70;;;;;;5047931;28;82075;-43
2022/06/29 13:57:15;;;;;;;;;;;24.20;60.60;;;;;;5047478;27;82908;-44
2022/06/29 13:59:40;;;;;;;;;;;24.20;60.20;;;;;;5047177;28;84514;-43
2022/06/29 14:02:06;;;;;;;;;;;24.20;60.30;;;;;;5047598;28;82070;-43
2022/06/29 14:04:31;;;;;;;;;;;24.20;60.10;;;;;;5049803;28;82346;-44
2022/06/29 14:06:57;;;;;;;;;;;24.30;60.50;;;;;;5047752;28;82059;-42
2022/06/29 14:09:22;;;;;;;;;;;24.30;60.60;;;;;;5047574;28;81957;-43
2022/06/29 14:11:48;;;;;;;;;;;24.30;60.40;;;;;;5047486;28;82160;-43
2022/06/29 14:14:13;;;;;;;;;;;24.30;60.60;;;;;;5047776;28;81254;-43
2022/06/29 14:16:39;;;;;;;;;;;24.40;60.60;;;;;;5047499;27;81953;-43
2022/06/29 14:19:05;;;;;;;;;;;24.40;60.00;;;;;;5047121;28;84962;-43
2022/06/29 14:21:31;;;;;;;;;;;24.50;60.40;;;;;;5046662;28;83089;-44
2022/06/29 14:23:56;;;;;;;;;;;24.50;60.40;;;;;;5047102;27;85074;-44
2022/06/29 14:26:22;;;;;;;;;;;24.50;60.50;;;;;;5048970;28;83071;-42
2022/06/29 14:28:48;;;;;;;;;;;24.50;60.30;;;;;;5047117;27;83935;-43
2022/06/29 14:31:13;;;;;;;;;;;24.50;60.30;;;;;;5046919;28;82211;-43
2022/06/29 14:33:39;;;;;;;;;;;24.40;60.30;;;;;;5047330;28;82098;-43
2022/06/29 14:36:04;;;;;;;;;;;24.40;60.30;;;;;;5047129;28;82352;-43
2022/06/29 14:38:30;;;;;;;;;;;24.40;60.30;;;;;;5047696;28;82186;-44
2022/06/29 14:40:55;;;;;;;;;;;24.40;60.40;;;;;;5047071;28;82120;-43